Time;durP1;ratioP1;P1;durP2;ratioP2;P2;SDS_P1;SDS_P2;PMS_P1;PMS_P2;Temp;Humidity;BMP_temperature;BMP_pressure;BME280_temperature;BME280_humidity;BME280_pressure;Samples;Min_cycle;Max_cycle;Signal;HPM_P1;HPM_P2
2022/09/25 00:01:10;;;;;;;6.90;1.48;;;;;;;;;;4998469;28;20042;-62
2022/09/25 00:03:35;;;;;;;7.32;1.70;;;;;;;;;;4999506;28;20099;-64
2022/09/25 00:06:02;;;;;;;17.85;1.90;;;;;;;;;;4998002;28;20069;-62
2022/09/25 00:08:28;;;;;;;6.13;1.60;;;;;;;;;;4999146;28;20041;-63
2022/09/25 00:10:54;;;;;;;5.47;1.50;;;;;;;;;;4998499;28;20292;-63
2022/09/25 00:13:19;;;;;;;6.82;1.40;;;;;;;;;;4999848;28;20045;-63
2022/09/25 00:15:46;;;;;;;7.57;2.10;;;;;;;;;;5012889;28;20470;-63
2022/09/25 00:18:12;;;;;;;8.45;1.45;;;;;;;;;;4999461;28;20034;-63
2022/09/25 00:20:37;;;;;;;6.55;1.58;;;;;;;;;;4999917;28;20048;-63
2022/09/25 00:23:03;;;;;;;6.40;1.58;;;;;;;;;;4999067;28;20044;-63
2022/09/25 00:25:28;;;;;;;14.35;1.80;;;;;;;;;;4999069;28;20779;-63
2022/09/25 00:27:53;;;;;;;4.93;1.42;;;;;;;;;;4990777;28;20029;-63
2022/09/25 00:30:19;;;;;;;8.13;1.35;;;;;;;;;;5012990;28;20345;-64
2022/09/25 00:32:44;;;;;;;6.95;1.52;;;;;;;;;;4998476;28;20036;-64
2022/09/25 00:35:09;;;;;;;5.55;1.30;;;;;;;;;;4997812;28;20562;-62
2022/09/25 00:37:35;;;;;;;7.25;1.40;;;;;;;;;;4998831;28;20544;-62
2022/09/25 00:40:01;;;;;;;6.18;1.40;;;;;;;;;;4999023;28;20041;-64
2022/09/25 00:42:26;;;;;;;6.63;1.38;;;;;;;;;;5029678;28;20032;-64
2022/09/25 00:44:56;;;;;;;6.30;1.50;;;;;;;;;;5038152;28;20032;-64
2022/09/25 00:47:41;;;;;;;7.43;1.75;;;;;;;;;;5037363;28;20489;-62
2022/09/25 00:50:15;;;;;;;6.95;1.42;;;;;;;;;;5036758;28;20283;-62
2022/09/25 00:52:40;;;;;;;5.55;1.58;;;;;;;;;;5036619;28;20036;-64
2022/09/25 00:55:06;;;;;;;8.90;1.58;;;;;;;;;;5037567;28;20994;-62
2022/09/25 00:57:34;;;;;;;7.30;1.65;;;;;;;;;;5038444;28;20028;-62
2022/09/25 01:00:07;;;;;;;6.55;1.30;;;;;;;;;;5035277;28;20154;-63
2022/09/25 01:02:38;;;;;;;13.02;1.50;;;;;;;;;;5032565;28;20671;-63
2022/09/25 01:05:05;;;;;;;6.80;1.42;;;;;;;;;;5037275;28;20044;-63
2022/09/25 01:07:32;;;;;;;8.57;1.60;;;;;;;;;;5017784;28;20139;-64
2022/09/25 01:10:01;;;;;;;6.25;1.23;;;;;;;;;;5037339;28;20032;-64
2022/09/25 01:12:26;;;;;;;9.52;1.40;;;;;;;;;;5022408;28;20115;-62
2022/09/25 01:14:52;;;;;;;8.98;1.30;;;;;;;;;;5003679;28;20122;-62
2022/09/25 01:17:19;;;;;;;6.97;1.50;;;;;;;;;;5023870;28;20036;-62
2022/09/25 01:19:47;;;;;;;3.97;1.20;;;;;;;;;;5035059;28;20470;-62
2022/09/25 01:22:19;;;;;;;6.88;1.40;;;;;;;;;;5015239;28;20046;-63
2022/09/25 01:25:02;;;;;;;5.10;1.20;;;;;;;;;;5035791;28;20044;-62
2022/09/25 01:27:42;;;;;;;5.13;1.40;;;;;;;;;;5036699;28;20087;-62
2022/09/25 01:30:12;;;;;;;4.32;1.13;;;;;;;;;;5035763;28;20605;-62
2022/09/25 01:32:50;;;;;;;8.13;1.95;;;;;;;;;;5033086;28;20577;-63
2022/09/25 01:35:27;;;;;;;7.20;1.35;;;;;;;;;;5036315;28;20507;-63
2022/09/25 01:37:58;;;;;;;3.85;1.20;;;;;;;;;;5037414;28;20116;-63
2022/09/25 01:40:27;;;;;;;7.78;1.30;;;;;;;;;;5034503;28;20911;-63
2022/09/25 01:43:00;;;;;;;6.53;1.35;;;;;;;;;;5016721;28;20109;-64
2022/09/25 01:45:28;;;;;;;10.00;1.52;;;;;;;;;;5036115;28;20086;-63
2022/09/25 01:47:56;;;;;;;10.38;1.60;;;;;;;;;;5037724;28;21304;-63
2022/09/25 01:50:41;;;;;;;6.03;1.73;;;;;;;;;;5035176;28;20040;-63
2022/09/25 01:53:10;;;;;;;6.95;1.20;;;;;;;;;;5020484;28;20048;-64
2022/09/25 01:55:39;;;;;;;5.50;1.40;;;;;;;;;;5009972;28;20791;-64
2022/09/25 01:58:17;;;;;;;9.30;1.60;;;;;;;;;;5037120;28;21158;-63
2022/09/25 02:00:44;;;;;;;8.07;1.42;;;;;;;;;;5037057;28;20576;-63
2022/09/25 02:03:21;;;;;;;8.52;1.83;;;;;;;;;;5035437;28;20124;-63
2022/09/25 02:05:51;;;;;;;7.50;1.67;;;;;;;;;;5035049;28;20331;-63
2022/09/25 02:08:19;;;;;;;3.45;1.27;;;;;;;;;;5035307;28;20037;-63
2022/09/25 02:10:50;;;;;;;5.53;1.40;;;;;;;;;;5035769;28;20032;-64
2022/09/25 02:13:16;;;;;;;5.38;1.50;;;;;;;;;;5034942;28;20131;-64
2022/09/25 02:15:48;;;;;;;9.57;2.10;;;;;;;;;;5037133;28;21852;-64
2022/09/25 02:21:11;;;;;;;9.43;1.77;;;;;;;;;;5035028;28;20029;-64
2022/09/25 02:23:46;;;;;;;11.88;1.60;;;;;;;;;;5035830;28;20040;-64
2022/09/25 02:26:15;;;;;;;6.85;1.58;;;;;;;;;;5035547;28;20093;-64
2022/09/25 02:28:43;;;;;;;11.43;1.70;;;;;;;;;;5035974;28;20059;-64
2022/09/25 02:31:11;;;;;;;6.20;1.70;;;;;;;;;;5032256;28;20396;-64
2022/09/25 02:33:37;;;;;;;12.38;2.17;;;;;;;;;;5035848;28;20041;-63
2022/09/25 02:36:03;;;;;;;5.85;1.70;;;;;;;;;;5034090;28;20408;-63
2022/09/25 02:38:30;;;;;;;5.55;1.48;;;;;;;;;;5034670;28;20043;-64
2022/09/25 02:41:00;;;;;;;9.55;1.55;;;;;;;;;;5035494;28;20619;-63
2022/09/25 02:43:43;;;;;;;8.57;1.77;;;;;;;;;;5034545;28;20044;-63
2022/09/25 02:46:09;;;;;;;4.07;1.58;;;;;;;;;;5034828;28;20543;-63
2022/09/25 02:48:54;;;;;;;5.45;1.48;;;;;;;;;;5036403;28;20447;-63
2022/09/25 02:51:20;;;;;;;6.70;2.30;;;;;;;;;;5002852;28;20041;-64
2022/09/25 02:54:00;;;;;;;10.20;1.70;;;;;;;;;;5034969;28;20162;-64
2022/09/25 02:56:39;;;;;;;4.35;1.27;;;;;;;;;;5033485;28;20058;-64
2022/09/25 02:59:07;;;;;;;6.40;1.60;;;;;;;;;;5033613;28;20039;-64
2022/09/25 03:01:34;;;;;;;4.70;1.50;;;;;;;;;;5034424;28;20686;-64
2022/09/25 03:04:00;;;;;;;4.82;1.70;;;;;;;;;;5031679;28;20143;-65
2022/09/25 03:06:28;;;;;;;7.75;1.80;;;;;;;;;;5034911;28;20163;-65
2022/09/25 03:08:55;;;;;;;6.18;1.95;;;;;;;;;;5034852;28;20620;-64
2022/09/25 03:11:22;;;;;;;7.93;1.60;;;;;;;;;;5036714;28;20699;-64
2022/09/25 03:13:58;;;;;;;5.40;1.60;;;;;;;;;;5033379;28;20075;-63
2022/09/25 03:16:33;;;;;;;8.70;1.65;;;;;;;;;;5034625;28;20040;-65
2022/09/25 03:18:58;;;;;;;6.63;1.60;;;;;;;;;;5016416;28;20149;-64
2022/09/25 03:21:26;;;;;;;5.60;1.90;;;;;;;;;;5034861;28;20040;-64
2022/09/25 03:23:51;;;;;;;4.82;1.50;;;;;;;;;;5038716;28;20028;-64
2022/09/25 03:26:16;;;;;;;4.13;1.60;;;;;;;;;;5024658;28;20325;-64
2022/09/25 03:28:42;;;;;;;10.23;1.95;;;;;;;;;;5039855;28;20043;-63
2022/09/25 03:31:09;;;;;;;5.93;1.75;;;;;;;;;;5037780;28;20032;-65
2022/09/25 03:33:35;;;;;;;11.40;1.90;;;;;;;;;;5038839;28;20094;-64
2022/09/25 03:36:05;;;;;;;9.75;1.98;;;;;;;;;;5038916;28;20047;-64
2022/09/25 03:38:31;;;;;;;9.93;1.92;;;;;;;;;;5054007;28;20062;-64
2022/09/25 03:40:56;;;;;;;6.55;1.85;;;;;;;;;;5034589;28;20457;-65
2022/09/25 03:43:24;;;;;;;6.32;1.77;;;;;;;;;;5038077;28;20040;-65
2022/09/25 03:45:52;;;;;;;6.32;1.73;;;;;;;;;;5037758;28;20051;-65
2022/09/25 03:48:17;;;;;;;8.93;1.85;;;;;;;;;;5037839;28;20047;-65
2022/09/25 03:50:44;;;;;;;13.27;2.00;;;;;;;;;;5038615;28;20462;-65
2022/09/25 03:53:09;;;;;;;10.73;1.95;;;;;;;;;;5037672;28;20098;-65
2022/09/25 03:55:35;;;;;;;10.18;2.58;;;;;;;;;;5038871;28;20036;-65
2022/09/25 03:58:00;;;;;;;9.38;1.88;;;;;;;;;;5038816;28;20459;-65
2022/09/25 04:00:25;;;;;;;5.10;1.90;;;;;;;;;;5039707;28;20036;-65
2022/09/25 04:02:51;;;;;;;9.60;1.88;;;;;;;;;;5037225;28;20113;-66
2022/09/25 04:05:17;;;;;;;8.15;2.05;;;;;;;;;;5037413;28;20359;-65
2022/09/25 04:07:43;;;;;;;11.75;2.10;;;;;;;;;;5037279;28;20056;-65
2022/09/25 04:10:08;;;;;;;7.65;1.90;;;;;;;;;;5025371;28;20184;-65
2022/09/25 04:12:34;;;;;;;9.40;2.22;;;;;;;;;;5036001;28;20032;-65
2022/09/25 04:14:59;;;;;;;10.70;2.22;;;;;;;;;;5037854;28;21802;-66
2022/09/25 04:17:24;;;;;;;6.50;1.88;;;;;;;;;;5036223;28;20040;-67
2022/09/25 04:19:51;;;;;;;9.02;1.90;;;;;;;;;;5023316;28;20105;-66
2022/09/25 04:22:16;;;;;;;11.18;2.22;;;;;;;;;;5038143;28;20139;-66
2022/09/25 04:24:48;;;;;;;13.93;2.03;;;;;;;;;;5038164;28;20040;-66
2022/09/25 04:27:19;;;;;;;8.25;2.17;;;;;;;;;;5036007;28;20230;-66
2022/09/25 04:29:44;;;;;;;10.48;1.63;;;;;;;;;;5037493;28;20070;-66
2022/09/25 04:34:53;;;;;;;8.57;1.95;;;;;;;;;;5051565;28;20285;-66
2022/09/25 04:37:22;;;;;;;9.30;1.90;;;;;;;;;;5038096;28;20044;-66
2022/09/25 04:39:47;;;;;;;11.70;2.42;;;;;;;;;;5033757;28;20162;-66
2022/09/25 04:42:13;;;;;;;8.00;2.20;;;;;;;;;;5030113;28;20508;-66
2022/09/25 04:44:40;;;;;;;12.63;2.10;;;;;;;;;;5021734;28;20044;-67
2022/09/25 04:47:05;;;;;;;7.60;2.05;;;;;;;;;;5036511;28;22088;-67
2022/09/25 04:49:33;;;;;;;10.57;1.90;;;;;;;;;;5036936;28;20049;-67
2022/09/25 04:51:58;;;;;;;13.02;2.83;;;;;;;;;;5037696;28;20094;-66
2022/09/25 04:54:23;;;;;;;8.85;2.08;;;;;;;;;;5041137;28;20044;-66
2022/09/25 04:56:49;;;;;;;13.23;2.00;;;;;;;;;;5037785;28;20337;-66
2022/09/25 04:59:15;;;;;;;9.07;2.05;;;;;;;;;;5036348;28;20044;-66
2022/09/25 05:01:40;;;;;;;6.57;2.22;;;;;;;;;;5038208;28;20121;-65
2022/09/25 05:04:08;;;;;;;11.90;2.42;;;;;;;;;;5037932;28;20253;-65
2022/09/25 05:06:34;;;;;;;12.05;2.58;;;;;;;;;;5027864;28;20053;-66
2022/09/25 05:08:59;;;;;;;11.25;2.17;;;;;;;;;;5028011;28;20118;-66
2022/09/25 05:11:24;;;;;;;8.43;2.15;;;;;;;;;;5023716;28;20617;-67
2022/09/25 05:13:50;;;;;;;15.40;2.40;;;;;;;;;;5037078;28;20487;-74
2022/09/25 05:16:16;;;;;;;8.45;2.28;;;;;;;;;;5036904;28;20198;-73
2022/09/25 05:18:41;;;;;;;13.85;2.63;;;;;;;;;;5036647;28;20043;-74
2022/09/25 05:21:07;;;;;;;12.93;2.60;;;;;;;;;;5036690;28;20126;-73
2022/09/25 05:23:34;;;;;;;13.70;2.85;;;;;;;;;;5037514;28;20036;-73
2022/09/25 05:26:01;;;;;;;11.05;2.00;;;;;;;;;;5018642;28;20697;-73
2022/09/25 05:28:29;;;;;;;9.98;1.88;;;;;;;;;;5035546;28;20632;-72
2022/09/25 05:30:56;;;;;;;8.23;2.03;;;;;;;;;;5034719;28;20032;-73
2022/09/25 05:33:21;;;;;;;9.57;2.22;;;;;;;;;;5034125;28;20040;-73
2022/09/25 05:35:49;;;;;;;10.40;2.08;;;;;;;;;;5017678;28;20051;-72
2022/09/25 05:38:14;;;;;;;9.85;2.00;;;;;;;;;;5036791;28;20211;-72
2022/09/25 05:40:46;;;;;;;9.32;2.10;;;;;;;;;;5031646;28;20044;-71
2022/09/25 05:43:12;;;;;;;9.18;2.10;;;;;;;;;;5035320;28;20040;-71
2022/09/25 05:45:37;;;;;;;8.80;1.80;;;;;;;;;;5032868;28;20029;-71
2022/09/25 05:48:03;;;;;;;12.02;2.40;;;;;;;;;;5036394;28;20512;-72
2022/09/25 05:50:31;;;;;;;9.10;2.15;;;;;;;;;;5035940;28;20588;-72
2022/09/25 05:52:57;;;;;;;8.30;2.10;;;;;;;;;;5035292;28;20044;-73
2022/09/25 05:55:25;;;;;;;8.20;2.28;;;;;;;;;;5034791;28;20200;-71
2022/09/25 05:57:58;;;;;;;8.48;2.75;;;;;;;;;;5020351;28;20062;-72
2022/09/25 06:00:23;;;;;;;7.68;2.20;;;;;;;;;;5017856;28;20040;-72
2022/09/25 06:02:50;;;;;;;11.13;3.00;;;;;;;;;;5022250;28;20316;-71
2022/09/25 06:05:18;;;;;;;12.60;2.90;;;;;;;;;;5032807;28;20037;-71
2022/09/25 06:07:43;;;;;;;9.90;2.42;;;;;;;;;;5033626;28;20032;-72
2022/09/25 06:10:08;;;;;;;8.25;2.40;;;;;;;;;;5034062;28;20196;-72
2022/09/25 06:12:34;;;;;;;11.30;2.67;;;;;;;;;;5034330;28;20037;-72
2022/09/25 06:15:02;;;;;;;9.48;2.60;;;;;;;;;;5032376;28;20117;-71
2022/09/25 06:17:32;;;;;;;13.90;2.72;;;;;;;;;;5016432;28;20040;-72
2022/09/25 06:20:00;;;;;;;7.95;2.88;;;;;;;;;;5021054;28;21832;-71
2022/09/25 06:22:25;;;;;;;8.77;2.88;;;;;;;;;;5034122;28;20037;-72
2022/09/25 06:24:50;;;;;;;8.57;3.03;;;;;;;;;;5031303;28;20436;-73
2022/09/25 06:27:18;;;;;;;9.90;3.22;;;;;;;;;;5034589;28;20378;-71
2022/09/25 06:29:46;;;;;;;6.95;3.03;;;;;;;;;;5034606;28;20578;-72
2022/09/25 06:32:11;;;;;;;7.63;3.03;;;;;;;;;;5035955;28;20044;-72
2022/09/25 06:34:37;;;;;;;11.73;3.38;;;;;;;;;;5034190;28;20044;-76
2022/09/25 06:37:02;;;;;;;8.65;2.63;;;;;;;;;;5032451;28;20436;-75
2022/09/25 06:39:27;;;;;;;12.48;2.38;;;;;;;;;;5041579;28;20048;-75
2022/09/25 06:41:53;;;;;;;12.70;2.50;;;;;;;;;;5031658;28;20326;-75
2022/09/25 06:44:19;;;;;;;7.75;2.00;;;;;;;;;;5034021;28;20559;-75
2022/09/25 06:46:47;;;;;;;6.50;2.20;;;;;;;;;;5016236;28;20043;-74
2022/09/25 06:49:12;;;;;;;6.82;1.80;;;;;;;;;;5036104;28;20340;-73
2022/09/25 06:51:40;;;;;;;6.97;1.85;;;;;;;;;;5016800;28;20145;-73
2022/09/25 06:54:10;;;;;;;10.02;2.45;;;;;;;;;;5035076;28;20048;-73
2022/09/25 06:56:38;;;;;;;6.57;1.83;;;;;;;;;;5015429;28;20165;-73
2022/09/25 06:59:03;;;;;;;5.82;1.75;;;;;;;;;;5016876;28;20040;-72
2022/09/25 07:01:29;;;;;;;6.95;2.08;;;;;;;;;;5034239;28;20311;-72
2022/09/25 07:03:56;;;;;;;6.53;2.20;;;;;;;;;;5017287;28;20188;-73
2022/09/25 07:06:24;;;;;;;9.15;2.60;;;;;;;;;;5035460;28;20051;-72
2022/09/25 07:08:50;;;;;;;5.78;2.20;;;;;;;;;;5032730;28;20037;-73
2022/09/25 07:11:19;;;;;;;6.93;1.90;;;;;;;;;;5022034;28;20124;-72
2022/09/25 07:13:53;;;;;;;6.45;2.35;;;;;;;;;;5034814;28;20048;-72
2022/09/25 07:16:22;;;;;;;7.85;2.17;;;;;;;;;;5034605;28;20174;-73
2022/09/25 07:18:52;;;;;;;6.32;2.38;;;;;;;;;;5034840;28;20040;-73
2022/09/25 07:21:18;;;;;;;7.13;2.30;;;;;;;;;;5020754;28;20040;-72
2022/09/25 07:23:48;;;;;;;4.68;2.22;;;;;;;;;;5034707;28;20197;-72
2022/09/25 07:26:14;;;;;;;6.05;2.47;;;;;;;;;;5034254;28;20383;-73
2022/09/25 07:28:41;;;;;;;4.10;1.85;;;;;;;;;;5032208;28;20041;-72
2022/09/25 07:31:09;;;;;;;7.60;2.88;;;;;;;;;;5031967;28;20592;-71
2022/09/25 07:33:37;;;;;;;6.30;2.72;;;;;;;;;;5033875;28;20040;-72
2022/09/25 07:36:02;;;;;;;8.25;2.50;;;;;;;;;;5034819;28;20024;-69
2022/09/25 07:38:27;;;;;;;8.07;2.28;;;;;;;;;;5008150;28;20138;-68
2022/09/25 07:40:53;;;;;;;6.28;2.30;;;;;;;;;;5035011;28;20048;-71
2022/09/25 07:43:18;;;;;;;8.05;1.90;;;;;;;;;;5007849;28;20036;-71
2022/09/25 07:45:53;;;;;;;6.78;1.90;;;;;;;;;;5035399;28;20032;-69
2022/09/25 07:48:21;;;;;;;20.00;2.85;;;;;;;;;;5034630;28;20043;-73
2022/09/25 07:50:50;;;;;;;12.95;2.70;;;;;;;;;;5034459;28;20484;-71
2022/09/25 07:53:18;;;;;;;17.45;2.78;;;;;;;;;;5048778;28;20113;-71
2022/09/25 07:55:44;;;;;;;17.60;2.40;;;;;;;;;;5034040;28;20040;-71
2022/09/25 07:58:10;;;;;;;12.57;2.38;;;;;;;;;;5049504;28;20032;-68
2022/09/25 08:00:36;;;;;;;10.25;2.00;;;;;;;;;;5033795;28;20378;-67
2022/09/25 08:03:02;;;;;;;7.40;1.63;;;;;;;;;;5034445;28;20071;-67
2022/09/25 08:05:27;;;;;;;12.15;1.50;;;;;;;;;;5030493;28;20522;-68
2022/09/25 08:07:53;;;;;;;7.38;1.42;;;;;;;;;;5033814;28;20062;-68
2022/09/25 08:10:21;;;;;;;11.85;2.00;;;;;;;;;;5037509;28;20119;-68
2022/09/25 08:12:47;;;;;;;6.22;1.70;;;;;;;;;;5036138;28;20541;-69
2022/09/25 08:15:15;;;;;;;10.48;1.65;;;;;;;;;;5051559;28;20043;-68
2022/09/25 08:17:41;;;;;;;5.38;1.15;;;;;;;;;;5024512;28;21379;-67
2022/09/25 08:20:07;;;;;;;5.38;1.08;;;;;;;;;;5052434;28;20040;-67
2022/09/25 08:22:34;;;;;;;6.80;1.73;;;;;;;;;;5038341;28;20032;-68
2022/09/25 08:25:01;;;;;;;7.28;1.02;;;;;;;;;;5037616;28;20046;-67
2022/09/25 08:27:27;;;;;;;2.30;1.00;;;;;;;;;;5037357;28;20370;-67
2022/09/25 08:29:52;;;;;;;5.50;0.90;;;;;;;;;;5024710;28;20318;-68
2022/09/25 08:32:18;;;;;;;6.32;1.10;;;;;;;;;;5036044;28;21027;-68
2022/09/25 08:34:43;;;;;;;7.03;1.00;;;;;;;;;;5037512;28;20055;-68
2022/09/25 08:37:08;;;;;;;9.38;1.30;;;;;;;;;;5037476;28;20033;-67
2022/09/25 08:39:34;;;;;;;6.97;1.20;;;;;;;;;;5037437;28;20032;-66
2022/09/25 08:42:00;;;;;;;7.47;1.10;;;;;;;;;;5030268;28;20072;-67
2022/09/25 08:44:40;;;;;;;5.30;1.00;;;;;;;;;;5037586;28;20028;-67
2022/09/25 08:50:12;;;;;;;5.32;0.93;;;;;;;;;;5035497;28;20071;-67
2022/09/25 08:52:40;;;;;;;3.67;0.80;;;;;;;;;;5034747;28;20131;-66
2022/09/25 08:55:12;;;;;;;7.97;1.13;;;;;;;;;;5034830;28;20589;-67
2022/09/25 08:57:42;;;;;;;5.68;1.00;;;;;;;;;;5035483;28;20545;-67
2022/09/25 09:00:16;;;;;;;5.78;1.20;;;;;;;;;;5032387;28;20028;-66
2022/09/25 09:02:45;;;;;;;8.02;1.15;;;;;;;;;;5035251;28;20645;-68
2022/09/25 09:05:20;;;;;;;5.45;0.80;;;;;;;;;;5035142;28;20381;-65
2022/09/25 09:07:49;;;;;;;7.57;1.35;;;;;;;;;;5034974;28;20687;-67
2022/09/25 09:10:15;;;;;;;7.35;1.20;;;;;;;;;;5026055;28;20389;-70
2022/09/25 09:12:43;;;;;;;4.72;0.90;;;;;;;;;;5050550;28;20064;-69
2022/09/25 09:15:18;;;;;;;4.05;0.98;;;;;;;;;;5018514;28;20054;-70
2022/09/25 09:17:46;;;;;;;7.20;0.93;;;;;;;;;;5035879;28;20040;-72
2022/09/25 09:20:13;;;;;;;6.28;0.70;;;;;;;;;;5041993;28;20032;-69
2022/09/25 09:22:44;;;;;;;3.15;0.70;;;;;;;;;;5036755;28;20120;-70
2022/09/25 09:25:29;;;;;;;3.42;0.70;;;;;;;;;;5036792;28;20591;-70
2022/09/25 09:28:10;;;;;;;6.18;0.80;;;;;;;;;;5035348;28;20431;-70
2022/09/25 09:30:43;;;;;;;6.35;0.93;;;;;;;;;;5036464;28;20103;-69
2022/09/25 09:33:23;;;;;;;6.03;0.98;;;;;;;;;;5034335;28;20036;-68
2022/09/25 09:36:09;;;;;;;2.95;0.70;;;;;;;;;;5009647;28;20036;-69
2022/09/25 09:39:07;;;;;;;4.25;1.00;;;;;;;;;;5034451;28;20028;-69
2022/09/25 09:41:32;;;;;;;5.03;1.00;;;;;;;;;;4986669;28;20176;-69
2022/09/25 09:44:03;;;;;;;6.15;0.80;;;;;;;;;;5036182;28;20476;-69
2022/09/25 09:46:31;;;;;;;5.95;0.95;;;;;;;;;;5019628;28;20029;-69
2022/09/25 09:49:03;;;;;;;3.88;0.88;;;;;;;;;;5039485;28;20421;-68
2022/09/25 09:51:36;;;;;;;7.00;0.88;;;;;;;;;;5034295;28;20110;-67
2022/09/25 09:54:22;;;;;;;4.38;0.95;;;;;;;;;;5047872;28;20591;-67
2022/09/25 09:56:49;;;;;;;4.88;0.80;;;;;;;;;;5024630;28;20269;-67
2022/09/25 09:59:24;;;;;;;3.30;0.85;;;;;;;;;;5033141;28;20444;-70
2022/09/25 10:02:03;;;;;;;3.17;0.70;;;;;;;;;;5037685;28;20756;-69
2022/09/25 10:04:31;;;;;;;3.20;0.70;;;;;;;;;;5040151;28;20368;-69
2022/09/25 10:07:11;;;;;;;2.25;0.68;;;;;;;;;;5053493;28;20178;-69
2022/09/25 10:09:37;;;;;;;2.95;0.60;;;;;;;;;;5034346;28;20053;-69
2022/09/25 10:12:13;;;;;;;2.95;0.40;;;;;;;;;;5034422;28;20496;-69
2022/09/25 10:14:41;;;;;;;3.67;0.52;;;;;;;;;;5036798;28;20048;-69
2022/09/25 10:17:10;;;;;;;2.58;0.60;;;;;;;;;;5032624;28;20063;-69
2022/09/25 10:19:50;;;;;;;3.85;0.98;;;;;;;;;;5033374;28;20253;-69
2022/09/25 10:22:19;;;;;;;2.95;0.75;;;;;;;;;;5033737;28;20036;-68
2022/09/25 10:24:54;;;;;;;3.83;0.85;;;;;;;;;;5036053;28;20032;-69
2022/09/25 10:27:23;;;;;;;2.95;0.70;;;;;;;;;;5032569;28;20039;-69
2022/09/25 10:30:00;;;;;;;3.47;0.68;;;;;;;;;;5036158;28;20804;-69
2022/09/25 10:32:28;;;;;;;2.55;0.50;;;;;;;;;;5016964;28;20117;-68
2022/09/25 10:34:53;;;;;;;3.88;0.65;;;;;;;;;;5046270;28;20245;-68
2022/09/25 10:37:20;;;;;;;5.97;1.00;;;;;;;;;;5038591;28;20955;-69
2022/09/25 10:39:59;;;;;;;5.10;1.30;;;;;;;;;;5040449;28;20043;-70
2022/09/25 10:42:40;;;;;;;5.47;0.80;;;;;;;;;;5017261;28;20048;-68
2022/09/25 10:45:34;;;;;;;7.77;1.43;;;;;;;;;;5023008;28;20093;-68
2022/09/25 10:50:43;;;;;;;10.52;1.20;;;;;;;;;;5026983;28;20060;-68
2022/09/25 10:53:32;;;;;;;10.90;1.40;;;;;;;;;;5034025;28;20694;-69
2022/09/25 10:56:01;;;;;;;8.88;1.15;;;;;;;;;;5017290;28;20032;-71
2022/09/25 10:58:33;;;;;;;6.07;1.17;;;;;;;;;;5018081;28;20927;-72
2022/09/25 11:01:00;;;;;;;9.50;1.10;;;;;;;;;;5015172;28;20855;-71
2022/09/25 11:03:27;;;;;;;5.93;1.17;;;;;;;;;;5017607;28;20438;-70
2022/09/25 11:05:56;;;;;;;7.13;1.02;;;;;;;;;;5014383;28;20058;-71
2022/09/25 11:08:28;;;;;;;4.50;1.00;;;;;;;;;;5013248;28;20036;-68
2022/09/25 11:10:56;;;;;;;5.07;1.00;;;;;;;;;;5014192;28;20113;-69
2022/09/25 11:13:35;;;;;;;2.92;0.85;;;;;;;;;;5022412;28;20839;-68
2022/09/25 11:16:02;;;;;;;3.50;0.82;;;;;;;;;;5013915;28;20452;-68
2022/09/25 11:18:48;;;;;;;2.90;0.60;;;;;;;;;;5012177;28;20055;-70
2022/09/25 11:21:22;;;;;;;7.25;0.95;;;;;;;;;;5026004;28;20051;-68
2022/09/25 11:23:58;;;;;;;6.97;0.90;;;;;;;;;;5012973;28;20044;-71
2022/09/25 11:26:31;;;;;;;6.20;1.00;;;;;;;;;;5013023;28;20598;-68
2022/09/25 11:29:03;;;;;;;4.72;1.08;;;;;;;;;;5011344;28;20301;-68
2022/09/25 11:31:36;;;;;;;6.00;0.90;;;;;;;;;;5009691;28;22007;-69
2022/09/25 11:34:06;;;;;;;6.82;0.95;;;;;;;;;;5010523;28;20044;-68
2022/09/25 11:36:34;;;;;;;3.47;0.80;;;;;;;;;;5014666;28;20190;-68
2022/09/25 11:41:51;;;;;;;;;;;;;;;;;;5004739;28;20807;-67
2022/09/25 11:44:32;;;;;;;4.18;0.77;;;;;;;;;;4996122;28;19921;-68
2022/09/25 11:47:24;;;;;;;3.05;0.50;;;;;;;;;;4995750;28;20377;-67
2022/09/25 11:49:53;;;;;;;4.27;0.70;;;;;;;;;;4987740;28;20041;-67
2022/09/25 11:52:24;;;;;;;3.53;0.93;;;;;;;;;;4996296;28;20037;-68
2022/09/25 11:54:51;;;;;;;4.35;0.80;;;;;;;;;;4996795;28;20128;-66
2022/09/25 11:57:29;;;;;;;3.00;0.80;;;;;;;;;;4996536;28;20496;-68
2022/09/25 12:00:11;;;;;;;3.70;0.60;;;;;;;;;;5026981;28;20318;-65
2022/09/25 12:02:49;;;;;;;3.58;0.80;;;;;;;;;;4997133;28;20037;-65
2022/09/25 12:05:17;;;;;;;4.82;0.70;;;;;;;;;;4996359;28;20790;-67
2022/09/25 12:07:46;;;;;;;2.00;0.60;;;;;;;;;;4997820;28;20448;-67
2022/09/25 12:10:35;;;;;;;5.60;0.82;;;;;;;;;;5006132;28;20140;-67
2022/09/25 12:13:19;;;;;;;3.33;0.70;;;;;;;;;;4954836;28;20356;-66
2022/09/25 12:15:44;;;;;;;3.70;0.90;;;;;;;;;;4996102;28;20385;-67
2022/09/25 12:18:16;;;;;;;3.35;0.63;;;;;;;;;;4996466;28;20293;-67
2022/09/25 12:20:41;;;;;;;5.13;0.80;;;;;;;;;;4996933;28;20844;-67
2022/09/25 12:23:13;;;;;;;3.42;0.60;;;;;;;;;;5014561;28;20032;-68
2022/09/25 12:25:55;;;;;;;5.28;0.75;;;;;;;;;;4996647;28;20640;-72
2022/09/25 12:28:33;;;;;;;3.47;0.60;;;;;;;;;;4998154;28;20041;-72
2022/09/25 12:31:07;;;;;;;4.32;0.90;;;;;;;;;;4996231;28;20112;-69
2022/09/25 12:33:39;;;;;;;4.95;0.80;;;;;;;;;;5000132;28;21025;-72
2022/09/25 12:36:14;;;;;;;5.25;0.80;;;;;;;;;;4999909;28;20029;-71
2022/09/25 12:38:54;;;;;;;6.07;0.90;;;;;;;;;;4998540;28;20112;-70
2022/09/25 12:41:39;;;;;;;2.77;0.67;;;;;;;;;;4988414;28;20747;-70
2022/09/25 12:44:23;;;;;;;3.33;0.73;;;;;;;;;;4994721;28;20528;-66
2022/09/25 12:46:49;;;;;;;4.97;0.70;;;;;;;;;;4996012;28;20039;-67
2022/09/25 12:49:14;;;;;;;5.05;0.90;;;;;;;;;;4996933;28;20394;-67
2022/09/25 12:51:45;;;;;;;10.15;0.80;;;;;;;;;;4995246;28;21782;-67
2022/09/25 12:54:14;;;;;;;3.53;0.98;;;;;;;;;;4995374;28;20044;-67
2022/09/25 12:56:46;;;;;;;1.83;0.50;;;;;;;;;;4993729;28;20072;-66
2022/09/25 12:59:17;;;;;;;2.22;0.70;;;;;;;;;;4996897;28;20179;-69
2022/09/25 13:01:51;;;;;;;1.95;0.50;;;;;;;;;;4998404;28;20079;-74
2022/09/25 13:04:35;;;;;;;6.13;0.70;;;;;;;;;;4996574;28;20038;-73
2022/09/25 13:07:22;;;;;;;4.57;0.60;;;;;;;;;;4997806;28;20473;-67
2022/09/25 13:09:47;;;;;;;4.95;0.68;;;;;;;;;;4995904;28;20045;-67
2022/09/25 13:12:14;;;;;;;3.95;0.63;;;;;;;;;;4994393;28;20865;-69
2022/09/25 13:14:51;;;;;;;2.80;0.90;;;;;;;;;;4996294;28;20430;-69
2022/09/25 13:17:16;;;;;;;2.85;0.80;;;;;;;;;;4994272;28;20581;-68
2022/09/25 13:19:44;;;;;;;6.65;0.90;;;;;;;;;;4994812;28;20752;-68
2022/09/25 13:22:20;;;;;;;5.75;0.77;;;;;;;;;;4996218;28;20349;-67
2022/09/25 13:24:51;;;;;;;4.78;0.85;;;;;;;;;;4994898;28;20617;-66
2022/09/25 13:27:21;;;;;;;3.07;0.60;;;;;;;;;;4995780;28;20501;-68
2022/09/25 13:29:58;;;;;;;5.50;0.88;;;;;;;;;;4996600;28;20048;-69
2022/09/25 13:32:27;;;;;;;5.25;1.13;;;;;;;;;;4999035;28;20041;-70
2022/09/25 13:34:54;;;;;;;6.15;0.98;;;;;;;;;;4998740;28;21175;-70
2022/09/25 13:37:25;;;;;;;4.75;0.90;;;;;;;;;;4996298;28;20172;-68
2022/09/25 13:42:36;;;;;;;3.60;0.90;;;;;;;;;;4995895;28;20822;-68
2022/09/25 13:45:08;;;;;;;7.78;0.95;;;;;;;;;;5005309;28;20405;-69
2022/09/25 13:47:37;;;;;;;2.55;0.70;;;;;;;;;;4994394;28;20053;-66
2022/09/25 13:50:05;;;;;;;5.95;0.90;;;;;;;;;;4994473;28;20052;-67
2022/09/25 13:53:16;;;;;;;3.83;0.80;;;;;;;;;;4988285;28;20040;-67
2022/09/25 13:55:54;;;;;;;11.65;1.33;;;;;;;;;;4989617;28;20049;-67
2022/09/25 13:58:38;;;;;;;9.60;1.40;;;;;;;;;;4994627;28;20036;-67
2022/09/25 14:01:09;;;;;;;7.95;1.10;;;;;;;;;;4995618;28;20039;-73
2022/09/25 14:03:48;;;;;;;3.40;0.70;;;;;;;;;;4997096;28;20446;-71
2022/09/25 14:06:26;;;;;;;5.28;0.75;;;;;;;;;;4989724;28;20292;-73
2022/09/25 14:08:54;;;;;;;4.50;0.50;;;;;;;;;;4999360;28;20645;-70
2022/09/25 14:11:32;;;;;;;2.22;0.65;;;;;;;;;;5003895;28;20263;-67
2022/09/25 14:14:00;;;;;;;6.07;0.90;;;;;;;;;;4994651;28;20723;-67
2022/09/25 14:16:28;;;;;;;4.60;0.90;;;;;;;;;;4994745;28;20685;-70
2022/09/25 14:18:55;;;;;;;4.45;1.30;;;;;;;;;;4995088;28;20226;-69
2022/09/25 14:21:21;;;;;;;2.97;0.70;;;;;;;;;;4994994;28;20091;-72
2022/09/25 14:23:48;;;;;;;2.97;0.80;;;;;;;;;;5010882;28;20259;-67
2022/09/25 14:26:20;;;;;;;4.63;0.80;;;;;;;;;;5012145;28;20776;-67
2022/09/25 14:28:45;;;;;;;;;;;;;;;;;;4995342;28;20629;-67
2022/09/25 14:31:23;;;;;;;4.65;0.68;;;;;;;;;;4994577;28;21816;-68
2022/09/25 14:34:07;;;;;;;3.20;0.60;;;;;;;;;;4995372;28;20041;-66
2022/09/25 14:36:44;;;;;;;4.00;0.65;;;;;;;;;;4992559;28;20498;-66
2022/09/25 14:39:28;;;;;;;4.05;1.02;;;;;;;;;;5008010;28;20073;-66
2022/09/25 14:42:04;;;;;;;2.60;0.60;;;;;;;;;;5026657;28;20036;-65
2022/09/25 14:44:35;;;;;;;4.20;0.57;;;;;;;;;;5035868;28;20193;-70
2022/09/25 14:47:02;;;;;;;5.82;1.00;;;;;;;;;;5038180;28;20454;-70
2022/09/25 14:49:29;;;;;;;4.88;0.80;;;;;;;;;;5033968;28;20135;-69
2022/09/25 14:51:59;;;;;;;2.83;0.70;;;;;;;;;;5033000;28;20156;-68
2022/09/25 14:54:28;;;;;;;4.95;0.70;;;;;;;;;;5036491;28;20281;-70
2022/09/25 14:56:55;;;;;;;4.72;0.77;;;;;;;;;;5032662;28;20051;-67
2022/09/25 14:59:30;;;;;;;4.63;0.57;;;;;;;;;;5036128;28;20044;-73
2022/09/25 15:01:56;;;;;;;1.75;0.63;;;;;;;;;;5019106;28;20464;-71
2022/09/25 15:04:26;;;;;;;3.92;0.70;;;;;;;;;;5043511;28;20060;-71
2022/09/25 15:07:00;;;;;;;3.78;0.60;;;;;;;;;;5036282;28;20320;-70
2022/09/25 15:09:35;;;;;;;6.57;0.90;;;;;;;;;;5011952;28;20041;-68
2022/09/25 15:12:09;;;;;;;3.10;0.70;;;;;;;;;;5008142;28;20035;-73
2022/09/25 15:14:34;;;;;;;8.07;0.90;;;;;;;;;;5038923;28;20276;-70